Time;durP1;ratioP1;P1;durP2;ratioP2;P2;SDS_P1;SDS_P2;PMS_P1;PMS_P2;Temp;Humidity;BMP_temperature;BMP_pressure;BME280_temperature;BME280_humidity;BME280_pressure;Samples;Min_cycle;Max_cycle;Signal;HPM_P1;HPM_P2
2023/04/28 00:02:14;;;;;;;8.70;3.10;;;1.20;92.20;;;;;;5057991;28;20097;-53
2023/04/28 00:04:40;;;;;;;4.05;2.25;;;1.20;93.00;;;;;;5086017;28;20058;-55
2023/04/28 00:07:06;;;;;;;5.07;2.38;;;1.20;92.90;;;;;;5065241;28;20052;-57
2023/04/28 00:09:32;;;;;;;8.63;3.10;;;1.20;93.70;;;;;;5089255;28;20123;-52
2023/04/28 00:11:58;;;;;;;6.28;2.92;;;1.20;90.90;;;;;;5055421;28;20539;-54
2023/04/28 00:14:24;;;;;;;5.72;3.08;;;1.10;92.60;;;;;;5069718;28;20071;-54
2023/04/28 00:16:50;;;;;;;5.65;2.97;;;1.10;91.40;;;;;;5080502;28;20446;-55
2023/04/28 00:19:15;;;;;;;3.63;2.63;;;1.10;91.50;;;;;;5080330;28;20024;-53
2023/04/28 00:21:40;;;;;;;5.65;2.90;;;1.10;92.10;;;;;;5067883;28;20086;-55
2023/04/28 00:24:06;;;;;;;5.28;3.17;;;1.00;91.70;;;;;;5066153;28;20040;-54
2023/04/28 00:26:32;;;;;;;8.70;3.33;;;1.00;91.20;;;;;;5072855;28;20113;-50
2023/04/28 00:28:57;;;;;;;5.97;3.10;;;1.00;92.50;;;;;;5069515;28;20021;-55
2023/04/28 00:31:23;;;;;;;6.78;2.80;;;0.90;92.10;;;;;;5079810;28;20028;-51
2023/04/28 00:33:48;;;;;;;6.63;3.17;;;0.90;92.20;;;;;;5071049;28;20551;-53
2023/04/28 00:36:14;;;;;;;5.10;2.83;;;0.90;92.00;;;;;;5078465;28;20025;-50
2023/04/28 00:38:40;;;;;;;6.63;2.45;;;0.80;92.10;;;;;;5088464;28;20106;-49
2023/04/28 00:41:06;;;;;;;6.78;2.45;;;0.80;92.60;;;;;;5067518;28;20043;-53
2023/04/28 00:43:42;;;;;;;9.52;2.90;;;0.80;93.10;;;;;;5068835;28;20103;-54
2023/04/28 00:46:07;;;;;;;3.90;2.20;;;0.80;92.60;;;;;;5069461;28;20093;-49
2023/04/28 00:48:33;;;;;;;4.13;2.60;;;0.80;91.50;;;;;;5088298;28;20123;-53
2023/04/28 00:50:58;;;;;;;7.57;3.05;;;0.70;91.00;;;;;;5067713;28;20055;-51
2023/04/28 00:53:24;;;;;;;5.95;2.40;;;0.70;90.30;;;;;;5088407;28;20025;-53
2023/04/28 00:55:51;;;;;;;5.80;2.47;;;0.70;93.30;;;;;;5067596;28;20037;-51
2023/04/28 00:58:18;;;;;;;4.72;2.60;;;0.70;94.30;;;;;;5088059;28;20062;-54
2023/04/28 01:00:43;;;;;;;6.15;3.03;;;0.60;95.20;;;;;;5067156;28;20033;-51
2023/04/28 01:03:09;;;;;;;5.47;2.83;;;0.60;95.20;;;;;;5088353;28;20085;-54
2023/04/28 01:05:36;;;;;;;7.13;2.97;;;0.60;93.80;;;;;;5073238;28;20024;-54
2023/04/28 01:08:01;;;;;;;5.07;2.97;;;0.50;93.00;;;;;;5048311;28;20075;-53
2023/04/28 01:10:27;;;;;;;6.85;3.45;;;0.50;93.90;;;;;;5074470;28;20056;-53
2023/04/28 01:12:52;;;;;;;5.53;3.00;;;0.50;95.60;;;;;;5079866;28;20063;-53
2023/04/28 01:15:19;;;;;;;6.10;3.33;;;0.50;97.80;;;;;;5065261;28;20461;-58
2023/04/28 01:17:46;;;;;;;6.68;3.80;;;0.50;98.20;;;;;;5087526;28;20122;-56
2023/04/28 01:20:12;;;;;;;5.45;2.95;;;0.40;97.30;;;;;;5066852;28;20032;-55
2023/04/28 01:22:37;;;;;;;6.97;3.28;;;0.40;97.50;;;;;;5087888;28;20027;-55
2023/04/28 01:25:03;;;;;;;4.82;3.20;;;0.40;96.80;;;;;;5067146;28;20389;-57
2023/04/28 01:27:28;;;;;;;8.55;3.28;;;0.40;95.80;;;;;;5087931;28;20071;-55
2023/04/28 01:29:54;;;;;;;7.43;3.28;;;0.40;96.50;;;;;;5066939;28;20039;-52
2023/04/28 01:32:20;;;;;;;6.55;3.40;;;0.40;96.30;;;;;;5087805;28;20031;-56
2023/04/28 01:34:46;;;;;;;7.03;3.50;;;0.40;99.90;;;;;;5067030;28;20036;-55
2023/04/28 01:37:11;;;;;;;9.20;3.83;;;0.40;99.90;;;;;;5087973;28;20035;-57
2023/04/28 01:39:37;;;;;;;10.20;4.35;;;0.40;99.90;;;;;;5066792;28;20057;-57
2023/04/28 01:42:03;;;;;;;8.98;4.20;;;0.40;99.90;;;;;;5085573;28;20028;-55
2023/04/28 01:44:28;;;;;;;6.75;3.15;;;0.30;99.90;;;;;;5079345;28;20419;-56
2023/04/28 01:46:53;;;;;;;7.47;3.55;;;0.30;99.90;;;;;;5079910;28;20036;-55
2023/04/28 01:49:19;;;;;;;6.53;3.63;;;0.30;99.90;;;;;;5068280;28;20035;-56
2023/04/28 01:51:44;;;;;;;9.07;4.18;;;0.30;99.90;;;;;;5081012;28;20538;-55
2023/04/28 01:54:10;;;;;;;9.48;3.95;;;0.30;99.90;;;;;;5068138;28;20365;-55
2023/04/28 01:56:35;;;;;;;6.30;3.45;;;0.30;99.90;;;;;;5086386;28;20112;-53
2023/04/28 01:59:01;;;;;;;6.68;3.13;;;0.30;99.90;;;;;;5072265;28;20062;-56
2023/04/28 02:01:26;;;;;;;6.80;4.05;;;0.30;99.90;;;;;;5087628;28;20036;-56
2023/04/28 02:03:53;;;;;;;11.52;5.22;;;0.20;99.90;;;;;;5072297;28;20040;-58
2023/04/28 02:06:19;;;;;;;10.98;4.50;;;0.20;99.90;;;;;;5083031;28;20032;-56
2023/04/28 02:08:44;;;;;;;8.88;4.32;;;0.20;99.90;;;;;;5072190;28;20035;-57
2023/04/28 02:11:10;;;;;;;8.88;4.63;;;0.20;99.90;;;;;;5091670;28;20533;-57
2023/04/28 02:13:35;;;;;;;6.47;3.75;;;0.20;99.90;;;;;;5070245;28;20055;-57
2023/04/28 02:16:01;;;;;;;7.95;4.38;;;0.20;99.90;;;;;;5091366;28;20028;-56
2023/04/28 02:18:27;;;;;;;6.57;3.85;;;0.20;99.90;;;;;;5070418;28;20035;-54
2023/04/28 02:20:52;;;;;;;7.53;3.92;;;0.20;99.90;;;;;;5091523;28;20044;-56
2023/04/28 02:23:18;;;;;;;8.00;4.10;;;0.20;99.90;;;;;;5070598;28;20458;-54
2023/04/28 02:25:43;;;;;;;9.07;4.07;;;0.20;99.90;;;;;;5091319;28;20039;-56
2023/04/28 02:28:09;;;;;;;9.88;3.85;;;0.10;99.90;;;;;;5070571;28;20441;-56
2023/04/28 02:30:34;;;;;;;8.70;4.07;;;0.10;99.90;;;;;;5091217;28;20028;-56
2023/04/28 02:33:00;;;;;;;12.77;3.92;;;0.20;99.90;;;;;;5070508;28;20103;-56
2023/04/28 02:35:25;;;;;;;7.35;3.67;;;0.20;99.90;;;;;;5091112;28;20035;-56
2023/04/28 02:37:51;;;;;;;7.55;3.75;;;0.20;99.90;;;;;;5070251;28;20044;-54
2023/04/28 02:40:17;;;;;;;10.02;3.65;;;0.20;99.20;;;;;;5090948;28;20028;-55
2023/04/28 02:42:42;;;;;;;10.65;3.92;;;0.10;98.50;;;;;;5070025;28;20504;-52
2023/04/28 02:45:08;;;;;;;6.15;3.78;;;0.10;99.30;;;;;;5090897;28;20048;-56
2023/04/28 02:47:34;;;;;;;8.45;3.72;;;0.10;99.90;;;;;;5070127;28;20016;-56
2023/04/28 02:49:59;;;;;;;7.22;3.92;;;0.10;99.90;;;;;;5090956;28;20032;-52
2023/04/28 02:52:25;;;;;;;8.45;3.95;;;0.20;99.90;;;;;;5069903;28;20021;-55
2023/04/28 02:54:53;;;;;;;8.68;4.03;;;0.10;99.90;;;;;;5090952;28;20077;-54
2023/04/28 02:57:19;;;;;;;6.18;3.50;;;0.10;99.90;;;;;;5069485;28;20032;-57
2023/04/28 02:59:45;;;;;;;6.45;3.28;;;0.10;99.90;;;;;;5090524;28;20034;-52
2023/04/28 03:02:11;;;;;;;9.57;3.53;;;0.10;99.90;;;;;;5069584;28;20029;-55
2023/04/28 03:04:37;;;;;;;7.57;3.92;;;0.10;99.90;;;;;;5088852;28;20032;-56
2023/04/28 03:07:02;;;;;;;6.13;3.78;;;0.10;99.90;;;;;;5066243;28;20549;-56
2023/04/28 03:09:28;;;;;;;9.13;3.78;;;0.10;99.90;;;;;;5068523;28;20451;-56
2023/04/28 03:11:53;;;;;;;4.63;3.15;;;0.10;99.90;;;;;;5070005;28;20384;-56
2023/04/28 03:14:18;;;;;;;6.43;3.00;;;0.00;99.90;;;;;;5084855;28;20024;-54
2023/04/28 03:16:44;;;;;;;4.30;2.53;;;0.00;99.90;;;;;;5079781;28;20032;-57
2023/04/28 03:19:10;;;;;;;7.63;3.15;;;0.00;99.90;;;;;;5085117;28;20032;-56
2023/04/28 03:21:35;;;;;;;6.07;2.67;;;0.00;99.90;;;;;;5085977;28;20503;-57
2023/04/28 03:24:01;;;;;;;5.10;2.65;;;0.00;99.90;;;;;;5085384;28;20035;-52
2023/04/28 03:26:26;;;;;;;3.97;2.40;;;-0.10;99.90;;;;;;5068360;28;20042;-55
2023/04/28 03:28:52;;;;;;;5.45;2.40;;;0.00;99.90;;;;;;5081414;28;20047;-57
2023/04/28 03:31:17;;;;;;;4.63;2.63;;;0.00;99.90;;;;;;5064647;28;20040;-56
2023/04/28 03:33:44;;;;;;;3.67;2.38;;;0.00;99.90;;;;;;5087599;28;20035;-57
2023/04/28 03:36:10;;;;;;;5.53;2.50;;;0.00;99.90;;;;;;5078591;28;20031;-56
2023/04/28 03:38:35;;;;;;;3.28;1.98;;;0.10;99.90;;;;;;5088010;28;20059;-54
2023/04/28 03:41:01;;;;;;;4.85;2.25;;;0.10;99.90;;;;;;5068885;28;20036;-58
2023/04/28 03:43:26;;;;;;;4.03;2.60;;;0.20;99.90;;;;;;5066112;28;20125;-55
2023/04/28 03:45:52;;;;;;;4.78;2.60;;;0.20;99.90;;;;;;5074080;28;20032;-52
2023/04/28 03:48:17;;;;;;;4.40;2.25;;;0.20;99.90;;;;;;5085625;28;20025;-53
2023/04/28 03:50:44;;;;;;;5.15;2.67;;;0.30;99.90;;;;;;5072005;28;20730;-54
2023/04/28 03:53:10;;;;;;;5.78;2.38;;;0.30;99.90;;;;;;5088335;28;20554;-56
2023/04/28 03:55:35;;;;;;;7.00;2.85;;;0.40;99.90;;;;;;5066674;28;20028;-58
2023/04/28 03:58:01;;;;;;;4.53;2.20;;;0.50;99.90;;;;;;5067972;28;20454;-55
2023/04/28 04:00:27;;;;;;;4.47;2.63;;;0.50;99.90;;;;;;5084191;28;20036;-56
2023/04/28 04:02:52;;;;;;;8.43;2.75;;;0.60;99.90;;;;;;5071932;28;20028;-56
2023/04/28 04:05:18;;;;;;;7.22;3.22;;;0.70;99.90;;;;;;5070238;28;20119;-54
2023/04/28 04:07:43;;;;;;;3.80;2.28;;;0.70;99.90;;;;;;5085088;28;20518;-53
2023/04/28 04:10:09;;;;;;;5.63;2.88;;;0.80;99.90;;;;;;5064980;28;20029;-54
2023/04/28 04:12:35;;;;;;;7.07;3.15;;;0.80;99.90;;;;;;5087625;28;20024;-56
2023/04/28 04:15:00;;;;;;;4.55;2.75;;;0.90;99.90;;;;;;5076035;28;20507;-56
2023/04/28 04:17:26;;;;;;;7.07;3.53;;;0.90;99.90;;;;;;5068324;28;20039;-53
2023/04/28 04:19:51;;;;;;;8.77;3.38;;;1.00;99.90;;;;;;5076417;28;20052;-58
2023/04/28 04:22:16;;;;;;;6.60;3.55;;;1.10;99.90;;;;;;5087004;28;20514;-57
2023/04/28 04:24:42;;;;;;;9.52;3.90;;;1.10;99.90;;;;;;5073495;28;20032;-56
2023/04/28 04:27:07;;;;;;;5.25;3.42;;;1.30;99.90;;;;;;5088098;28;20036;-57
2023/04/28 04:29:33;;;;;;;7.07;3.45;;;1.30;99.90;;;;;;5069600;28;20032;-56
2023/04/28 04:31:58;;;;;;;6.60;3.03;;;1.30;99.90;;;;;;5087866;28;20081;-55
2023/04/28 04:34:24;;;;;;;6.32;3.38;;;1.40;99.90;;;;;;5070183;28;20410;-56
2023/04/28 04:36:49;;;;;;;8.70;3.33;;;1.50;99.90;;;;;;5087579;28;20036;-56
2023/04/28 04:39:15;;;;;;;4.78;3.15;;;1.60;99.90;;;;;;5065927;28;20396;-55
2023/04/28 04:41:41;;;;;;;10.95;3.60;;;2.00;99.90;;;;;;5067155;28;20103;-56
2023/04/28 04:44:06;;;;;;;5.15;2.70;;;3.20;99.90;;;;;;5079197;28;20033;-53
2023/04/28 04:46:32;;;;;;;5.78;3.13;;;4.30;98.20;;;;;;5067825;28;20028;-55
2023/04/28 04:48:57;;;;;;;6.50;2.63;;;5.40;90.70;;;;;;5085476;28;20069;-56
2023/04/28 04:51:23;;;;;;;4.70;2.50;;;6.50;83.90;;;;;;5086817;28;20403;-56
2023/04/28 04:53:48;;;;;;;5.55;2.58;;;7.50;78.50;;;;;;5078483;28;20028;-55
2023/04/28 04:56:14;;;;;;;5.18;2.92;;;8.40;72.00;;;;;;5088234;28;20039;-57
2023/04/28 04:58:43;;;;;;;8.18;2.58;;;9.50;66.80;;;;;;5072565;28;20120;-57
2023/04/28 05:01:09;;;;;;;4.50;2.60;;;10.40;59.10;;;;;;5088938;28;20024;-56
2023/04/28 05:03:34;;;;;;;5.78;2.78;;;11.20;57.40;;;;;;5065633;28;20036;-56
2023/04/28 05:06:01;;;;;;;5.65;2.95;;;12.00;48.40;;;;;;5072783;28;20031;-55
2023/04/28 05:08:27;;;;;;;4.05;2.95;;;12.60;36.20;;;;;;5062342;28;20028;-55
2023/04/28 05:10:52;;;;;;;5.43;2.70;;;13.30;41.30;;;;;;5086816;28;20051;-58
2023/04/28 05:13:18;;;;;;;10.95;3.35;;;13.90;39.70;;;;;;5068964;28;20032;-57
2023/04/28 05:15:43;;;;;;;4.32;2.05;;;14.50;27.50;;;;;;5072539;28;20036;-49
2023/04/28 05:18:10;;;;;;;4.95;2.75;;;15.00;32.20;;;;;;5087846;28;20449;-50
2023/04/28 05:20:35;;;;;;;4.07;2.85;;;15.50;28.30;;;;;;5066731;28;20044;-49
2023/04/28 05:23:01;;;;;;;6.10;2.60;;;16.00;26.90;;;;;;5087727;28;20097;-51
2023/04/28 05:25:27;;;;;;;4.18;2.42;;;16.20;23.70;;;;;;5066936;28;20020;-49
2023/04/28 05:27:52;;;;;;;3.95;2.58;;;16.40;21.30;;;;;;5087551;28;20118;-52
2023/04/28 05:30:18;;;;;;;3.90;2.40;;;16.80;21.40;;;;;;5076766;28;20036;-48
2023/04/28 05:32:43;;;;;;;5.90;2.17;;;17.40;20.60;;;;;;5068589;28;20680;-47
2023/04/28 05:35:09;;;;;;;5.43;2.20;;;18.20;18.90;;;;;;5085599;28;20032;-49
2023/04/28 05:37:36;;;;;;;4.40;2.30;;;18.70;17.80;;;;;;5068453;28;20054;-50
2023/04/28 05:40:03;;;;;;;3.88;2.17;;;19.10;9.90;;;;;;5085925;28;20420;-46
2023/04/28 05:42:29;;;;;;;5.00;2.15;;;19.20;13.60;;;;;;5068304;28;20036;-49
2023/04/28 05:44:54;;;;;;;4.13;1.92;;;19.80;12.00;;;;;;5085292;28;20535;-49
2023/04/28 05:47:20;;;;;;;4.32;2.30;;;19.70;7.60;;;;;;5088204;28;20025;-49
2023/04/28 05:49:45;;;;;;;3.92;2.22;;;19.70;9.80;;;;;;5072503;28;20028;-46
2023/04/28 05:52:11;;;;;;;6.78;2.05;;;19.70;5.60;;;;;;5088092;28;20021;-47
2023/04/28 05:54:36;;;;;;;3.63;2.35;;;19.60;7.30;;;;;;5071081;28;20459;-46
2023/04/28 05:57:02;;;;;;;3.35;2.40;;;19.90;7.90;;;;;;5088055;28;20032;-47
2023/04/28 05:59:29;;;;;;;4.00;2.78;;;19.90;7.90;;;;;;5069608;28;20063;-47
2023/04/28 06:01:55;;;;;;;3.58;2.10;;;20.20;5.30;;;;;;5088119;28;20032;-46
2023/04/28 06:04:20;;;;;;;4.93;2.67;;;20.30;7.20;;;;;;5069109;28;20029;-47
2023/04/28 06:06:46;;;;;;;3.42;2.10;;;20.60;2.80;;;;;;5082293;28;20040;-47
2023/04/28 06:09:11;;;;;;;4.75;2.20;;;20.20;5.90;;;;;;5067447;28;20115;-45
2023/04/28 06:11:36;;;;;;;7.85;2.58;;;20.60;3.50;;;;;;5087954;28;20078;-47
2023/04/28 06:14:02;;;;;;;3.63;2.20;;;20.80;2.00;;;;;;5068273;28;20147;-53
2023/04/28 06:16:28;;;;;;;3.53;2.30;;;21.50;3.60;;;;;;5085875;28;20039;-55
2023/04/28 06:18:53;;;;;;;4.45;2.38;;;21.70;1.00;;;;;;5068020;28;20037;-49
2023/04/28 06:21:20;;;;;;;2.88;1.95;;;21.40;1.00;;;;;;5066401;28;20048;-48
2023/04/28 06:23:45;;;;;;;4.35;2.35;;;21.50;3.00;;;;;;5086605;28;20031;-49
2023/04/28 06:26:11;;;;;;;2.75;2.33;;;22.00;2.20;;;;;;5065846;28;20218;-48
2023/04/28 06:28:37;;;;;;;4.72;2.70;;;21.70;1.00;;;;;;5087086;28;20487;-46
2023/04/28 06:31:02;;;;;;;3.38;2.63;;;20.60;1.00;;;;;;5066339;28;20420;-46
2023/04/28 06:33:28;;;;;;;6.85;2.83;;;20.10;1.40;;;;;;5087034;28;20035;-46
2023/04/28 06:35:54;;;;;;;4.85;2.60;;;20.10;2.10;;;;;;5066455;28;20551;-49
2023/04/28 06:38:19;;;;;;;6.82;3.15;;;19.90;1.60;;;;;;5086863;28;20582;-52
2023/04/28 06:40:45;;;;;;;5.85;2.78;;;19.90;1.40;;;;;;5066082;28;20021;-52
2023/04/28 06:43:11;;;;;;;6.13;2.75;;;20.10;1.60;;;;;;5076548;28;20059;-53
2023/04/28 06:45:37;;;;;;;7.28;2.58;;;20.80;2.40;;;;;;5086093;28;20049;-52
2023/04/28 06:48:03;;;;;;;6.18;2.60;;;21.40;1.00;;;;;;5079418;28;20062;-52
2023/04/28 06:50:28;;;;;;;4.22;2.75;;;21.90;1.10;;;;;;5089364;28;20043;-47
2023/04/28 06:52:54;;;;;;;5.18;2.78;;;21.40;1.00;;;;;;5071515;28;20368;-51
2023/04/28 06:55:19;;;;;;;5.03;2.92;;;20.70;1.00;;;;;;5070350;28;20041;-47
2023/04/28 06:57:45;;;;;;;7.80;3.10;;;19.70;1.10;;;;;;5090340;28;20031;-51
2023/04/28 07:00:11;;;;;;;6.75;3.20;;;19.50;2.00;;;;;;5069401;28;20037;-53
2023/04/28 07:02:37;;;;;;;5.45;3.00;;;20.70;1.20;;;;;;5076030;28;20082;-51
2023/04/28 07:05:03;;;;;;;5.38;2.58;;;21.60;1.00;;;;;;5082000;28;20031;-52
2023/04/28 07:07:29;;;;;;;5.10;2.83;;;22.50;1.00;;;;;;5079967;28;20506;-50
2023/04/28 07:09:55;;;;;;;6.72;3.25;;;22.90;1.00;;;;;;5078680;28;20024;-49
2023/04/28 07:12:21;;;;;;;9.25;3.08;;;21.80;1.00;;;;;;5071170;28;20021;-53
2023/04/28 07:14:47;;;;;;;6.07;3.30;;;21.20;1.00;;;;;;5088210;28;20070;-50
2023/04/28 07:17:12;;;;;;;6.65;2.78;;;20.60;1.00;;;;;;5071178;28;20028;-50
2023/04/28 07:19:38;;;;;;;8.02;2.88;;;20.50;1.00;;;;;;5087915;28;20032;-51
2023/04/28 07:22:03;;;;;;;5.63;2.60;;;20.70;1.00;;;;;;5074005;28;20033;-49
2023/04/28 07:24:29;;;;;;;5.55;2.40;;;21.10;1.00;;;;;;5087775;28;20035;-50
2023/04/28 07:26:55;;;;;;;3.85;2.70;;;21.90;1.00;;;;;;5090720;28;20107;-53
2023/04/28 07:29:21;;;;;;;5.60;2.42;;;21.40;1.00;;;;;;5073211;28;20106;-51
2023/04/28 07:31:46;;;;;;;6.35;2.67;;;21.70;1.00;;;;;;5088504;28;20036;-47
2023/04/28 07:34:12;;;;;;;4.40;2.60;;;21.60;1.00;;;;;;5070796;28;20447;-51
2023/04/28 07:36:37;;;;;;;6.22;2.38;;;21.00;1.00;;;;;;5075391;28;20087;-47
2023/04/28 07:39:03;;;;;;;7.97;3.08;;;21.50;1.00;;;;;;5090154;28;20038;-48
2023/04/28 07:41:29;;;;;;;4.97;2.60;;;22.10;1.00;;;;;;5088315;28;20137;-48
2023/04/28 07:43:54;;;;;;;7.10;2.70;;;22.40;1.00;;;;;;5074299;28;20050;-51
2023/04/28 07:46:20;;;;;;;5.53;3.05;;;21.80;1.00;;;;;;5083093;28;20024;-48
2023/04/28 07:48:45;;;;;;;8.60;3.10;;;21.20;1.00;;;;;;5068533;28;20025;-48
2023/04/28 07:51:11;;;;;;;5.00;2.42;;;20.70;1.00;;;;;;5088058;28;20074;-47
2023/04/28 07:53:36;;;;;;;4.63;2.75;;;21.10;1.00;;;;;;5079831;28;20111;-51
2023/04/28 07:56:02;;;;;;;4.53;2.65;;;21.20;1.00;;;;;;5069725;28;20033;-50
2023/04/28 07:58:28;;;;;;;5.47;2.88;;;20.80;1.00;;;;;;5086913;28;20028;-50
2023/04/28 08:00:53;;;;;;;5.20;3.10;;;19.60;1.00;;;;;;5070055;28;20059;-53
2023/04/28 08:03:18;;;;;;;7.40;2.97;;;19.20;1.00;;;;;;5087524;28;20132;-49
2023/04/28 08:05:44;;;;;;;7.55;3.05;;;18.50;1.00;;;;;;5077538;28;20042;-51
2023/04/28 08:08:10;;;;;;;5.75;3.40;;;18.50;1.00;;;;;;5076888;28;20099;-48
2023/04/28 08:10:36;;;;;;;6.00;3.22;;;18.30;1.00;;;;;;5070193;28;20119;-50
2023/04/28 08:13:02;;;;;;;5.65;3.33;;;18.20;1.00;;;;;;5087163;28;20063;-49
2023/04/28 08:15:28;;;;;;;5.30;3.03;;;17.80;1.10;;;;;;5089538;28;20052;-48
2023/04/28 08:17:53;;;;;;;5.22;3.40;;;17.50;1.70;;;;;;5074278;28;20087;-53
2023/04/28 08:20:19;;;;;;;7.10;3.33;;;17.00;1.80;;;;;;5089506;28;20157;-51
2023/04/28 08:22:45;;;;;;;6.50;3.40;;;17.50;2.60;;;;;;5072817;28;20036;-52
2023/04/28 08:25:10;;;;;;;5.35;3.72;;;17.30;1.90;;;;;;5087279;28;20032;-52
2023/04/28 08:27:38;;;;;;;6.47;3.63;;;16.90;2.50;;;;;;5079773;28;20085;-51
2023/04/28 08:30:08;;;;;;;5.22;3.50;;;16.40;3.20;;;;;;5075481;28;20132;-51
2023/04/28 08:32:33;;;;;;;5.68;3.72;;;16.50;3.70;;;;;;5068952;28;20024;-49
2023/04/28 08:34:59;;;;;;;8.02;4.18;;;16.60;4.30;;;;;;5086746;28;20036;-48
2023/04/28 08:37:26;;;;;;;6.10;3.88;;;16.80;3.60;;;;;;5073371;28;20039;-47
2023/04/28 08:39:58;;;;;;;6.38;3.90;;;16.90;3.40;;;;;;5086830;28;20122;-50
2023/04/28 08:42:25;;;;;;;6.80;3.22;;;16.90;3.40;;;;;;5087172;28;20089;-48
2023/04/28 08:44:58;;;;;;;7.22;3.80;;;17.40;3.50;;;;;;5079112;28;20066;-50
2023/04/28 08:47:28;;;;;;;4.32;3.22;;;17.30;3.50;;;;;;5060187;28;20048;-49
2023/04/28 08:49:57;;;;;;;4.00;3.40;;;17.80;3.40;;;;;;5052476;28;20017;-53
2023/04/28 08:52:25;;;;;;;6.10;3.65;;;17.70;3.50;;;;;;5087329;28;20539;-49
2023/04/28 08:54:50;;;;;;;6.65;3.45;;;17.60;3.50;;;;;;5075042;28;20123;-52
2023/04/28 08:57:18;;;;;;;7.18;3.67;;;17.60;3.10;;;;;;5086975;28;20099;-51
2023/04/28 08:59:44;;;;;;;8.85;4.10;;;17.20;3.90;;;;;;5068543;28;20450;-49
2023/04/28 09:02:09;;;;;;;11.75;4.28;;;17.40;3.70;;;;;;5070099;28;20029;-47
2023/04/28 09:04:35;;;;;;;9.57;4.00;;;17.50;3.80;;;;;;5086164;28;20314;-55
2023/04/28 09:07:01;;;;;;;5.50;3.55;;;17.30;3.50;;;;;;5063905;28;20028;-56
2023/04/28 09:09:29;;;;;;;11.32;4.53;;;17.10;4.40;;;;;;5088071;28;20119;-55
2023/04/28 09:12:03;;;;;;;5.63;3.65;;;17.10;4.00;;;;;;5066852;28;20445;-56
2023/04/28 09:14:31;;;;;;;6.43;3.85;;;17.20;4.40;;;;;;5087136;28;20462;-55
2023/04/28 09:16:57;;;;;;;6.75;4.22;;;17.10;4.10;;;;;;5067188;28;20020;-56
2023/04/28 09:19:23;;;;;;;9.57;4.35;;;16.60;4.70;;;;;;5087769;28;20035;-54
2023/04/28 09:21:52;;;;;;;8.95;4.28;;;16.30;5.30;;;;;;5066928;28;20059;-52
2023/04/28 09:24:31;;;;;;;7.72;3.55;;;16.20;5.80;;;;;;5087933;28;20503;-53
2023/04/28 09:26:58;;;;;;;6.25;4.22;;;16.30;6.40;;;;;;5066570;28;20024;-55
2023/04/28 09:29:24;;;;;;;7.15;4.30;;;16.70;5.30;;;;;;5088102;28;20035;-54
2023/04/28 09:31:50;;;;;;;8.52;3.80;;;16.80;5.10;;;;;;5066691;28;20054;-54
2023/04/28 09:34:16;;;;;;;7.28;4.78;;;17.00;4.90;;;;;;5087716;28;20028;-55
2023/04/28 09:36:41;;;;;;;7.53;3.92;;;17.00;4.20;;;;;;5066977;28;20056;-55
2023/04/28 09:39:07;;;;;;;4.88;3.95;;;17.30;4.20;;;;;;5087462;28;20140;-53
2023/04/28 09:41:42;;;;;;;8.18;4.60;;;17.20;4.20;;;;;;5077601;28;20032;-55
2023/04/28 09:44:16;;;;;;;6.55;4.10;;;17.40;4.10;;;;;;5074033;28;20119;-55
2023/04/28 09:46:43;;;;;;;5.82;4.32;;;17.40;3.70;;;;;;5086157;28;20044;-54
2023/04/28 09:49:09;;;;;;;9.10;4.45;;;17.60;4.00;;;;;;5068220;28;20528;-52
2023/04/28 09:51:35;;;;;;;10.13;4.65;;;17.70;3.70;;;;;;5074457;28;20462;-53
2023/04/28 09:54:01;;;;;;;6.70;4.78;;;17.60;3.90;;;;;;5087396;28;20031;-54
2023/04/28 09:56:28;;;;;;;8.13;5.40;;;17.10;4.40;;;;;;5076720;28;20111;-52
2023/04/28 09:58:58;;;;;;;11.50;5.85;;;17.30;4.60;;;;;;5068035;28;20024;-54
2023/04/28 10:01:25;;;;;;;7.88;4.75;;;17.20;4.30;;;;;;5086147;28;20032;-54
2023/04/28 10:03:52;;;;;;;8.80;4.82;;;16.90;5.00;;;;;;5076037;28;20063;-53
2023/04/28 10:06:19;;;;;;;8.73;5.40;;;16.70;4.80;;;;;;5059726;28;20027;-50
2023/04/28 10:08:47;;;;;;;9.10;5.10;;;16.60;5.50;;;;;;5065003;28;20054;-52
2023/04/28 10:11:14;;;;;;;8.10;5.03;;;16.50;5.20;;;;;;5070940;28;20028;-54
2023/04/28 10:13:41;;;;;;;10.00;5.93;;;16.50;5.40;;;;;;5068350;28;20094;-51
2023/04/28 10:16:07;;;;;;;9.27;4.90;;;16.30;5.90;;;;;;5073111;28;20052;-54
2023/04/28 10:18:34;;;;;;;12.82;6.22;;;16.30;6.10;;;;;;5088729;28;20559;-55
2023/04/28 10:21:02;;;;;;;9.25;5.05;;;16.30;6.00;;;;;;5078142;28;20044;-54
2023/04/28 10:23:59;;;;;;;9.52;5.18;;;16.50;6.20;;;;;;5076291;28;20028;-53
2023/04/28 10:26:57;;;;;;;8.18;5.07;;;16.60;6.10;;;;;;5070778;28;20035;-54
2023/04/28 10:29:25;;;;;;;10.05;4.95;;;16.80;6.20;;;;;;5064202;28;20036;-55
2023/04/28 10:32:16;;;;;;;8.32;4.90;;;17.00;6.10;;;;;;5076524;28;20028;-52
2023/04/28 10:34:42;;;;;;;6.88;3.83;;;16.80;5.90;;;;;;5087577;28;20573;-52
2023/04/28 10:37:07;;;;;;;11.50;5.40;;;17.00;5.60;;;;;;5089562;28;20052;-54
2023/04/28 10:39:33;;;;;;;8.05;4.57;;;17.20;5.30;;;;;;5089152;28;20024;-52
2023/04/28 10:41:59;;;;;;;10.45;4.72;;;17.00;6.40;;;;;;5067401;28;20040;-56
2023/04/28 10:44:27;;;;;;;12.02;5.82;;;16.90;6.40;;;;;;5088212;28;20564;-54
2023/04/28 10:47:13;;;;;;;8.93;5.38;;;16.50;6.30;;;;;;5079653;28;20074;-56
2023/04/28 10:50:06;;;;;;;9.43;5.25;;;16.50;7.10;;;;;;5085808;28;20505;-55
2023/04/28 10:52:37;;;;;;;9.18;4.82;;;16.70;6.70;;;;;;5043417;28;20860;-55
2023/04/28 10:55:32;;;;;;;13.23;5.45;;;17.00;6.20;;;;;;5088930;28;20020;-53
2023/04/28 10:58:23;;;;;;;8.88;4.72;;;16.90;6.50;;;;;;5071171;28;20647;-55
2023/04/28 11:00:50;;;;;;;10.05;5.88;;;16.90;6.30;;;;;;5060176;28;20049;-52
2023/04/28 11:03:36;;;;;;;9.32;4.60;;;16.70;6.70;;;;;;5086502;28;20506;-53
2023/04/28 11:06:24;;;;;;;10.63;5.97;;;16.90;6.80;;;;;;5082688;28;20365;-53
2023/04/28 11:08:50;;;;;;;9.63;5.20;;;16.90;6.50;;;;;;5069308;28;20093;-54
2023/04/28 11:11:18;;;;;;;12.00;5.13;;;17.00;6.40;;;;;;5069503;28;20117;-56
2023/04/28 11:13:45;;;;;;;8.27;4.40;;;17.00;6.70;;;;;;5086851;28;20034;-53
2023/04/28 11:16:15;;;;;;;7.75;4.53;;;17.20;6.00;;;;;;5069287;28;20127;-56
2023/04/28 11:19:03;;;;;;;10.02;5.38;;;17.30;6.00;;;;;;5086164;28;20032;-55
2023/04/28 11:21:29;;;;;;;9.98;5.28;;;17.20;5.90;;;;;;5048882;28;20511;-56
2023/04/28 11:23:56;;;;;;;10.50;5.28;;;17.00;6.40;;;;;;5075245;28;20086;-55
2023/04/28 11:26:22;;;;;;;6.63;5.05;;;16.90;7.50;;;;;;5086111;28;20028;-55
2023/04/28 11:28:48;;;;;;;9.60;5.18;;;16.90;6.80;;;;;;5077433;28;20028;-56
2023/04/28 11:31:20;;;;;;;8.13;5.45;;;16.70;7.00;;;;;;5068337;28;20024;-55
2023/04/28 11:33:59;;;;;;;12.68;5.30;;;16.60;6.90;;;;;;5078544;28;20081;-53
2023/04/28 11:36:27;;;;;;;9.85;4.40;;;16.70;7.40;;;;;;5048456;28;20029;-54
2023/04/28 11:38:54;;;;;;;10.88;5.22;;;16.90;7.20;;;;;;5075171;28;20036;-57
2023/04/28 11:41:21;;;;;;;14.85;5.57;;;16.90;7.10;;;;;;5067314;28;20028;-55
2023/04/28 11:43:46;;;;;;;8.45;5.00;;;16.80;7.20;;;;;;5085514;28;20052;-56
2023/04/28 11:46:17;;;;;;;11.15;5.00;;;17.00;7.20;;;;;;5068477;28;20281;-57
2023/04/28 11:48:42;;;;;;;8.90;5.32;;;17.00;7.50;;;;;;5089868;28;20494;-56
2023/04/28 11:51:08;;;;;;;13.77;6.53;;;17.00;7.80;;;;;;5068935;28;20115;-57
2023/04/28 11:53:43;;;;;;;10.93;5.55;;;17.00;7.40;;;;;;5090233;28;20032;-55
2023/04/28 11:56:12;;;;;;;8.50;4.57;;;16.90;8.10;;;;;;5068780;28;20029;-57
2023/04/28 11:58:39;;;;;;;7.65;4.15;;;17.00;7.70;;;;;;5090436;28;20024;-57
2023/04/28 12:01:14;;;;;;;10.90;6.13;;;17.40;8.00;;;;;;5069512;28;20017;-55
2023/04/28 12:03:46;;;;;;;9.38;5.70;;;17.40;7.60;;;;;;5090265;28;20028;-57
2023/04/28 12:06:17;;;;;;;11.23;6.07;;;17.10;7.90;;;;;;5068070;28;20146;-57
2023/04/28 12:08:43;;;;;;;9.20;5.05;;;16.90;7.80;;;;;;5050165;28;20044;-56
2023/04/28 12:11:13;;;;;;;7.18;4.05;;;17.10;7.80;;;;;;5069313;28;20033;-57
2023/04/28 12:13:40;;;;;;;9.15;5.75;;;17.40;7.90;;;;;;5073516;28;20032;-55
2023/04/28 12:16:06;;;;;;;8.23;5.20;;;17.40;7.40;;;;;;5088925;28;20098;-57
2023/04/28 12:18:35;;;;;;;9.38;5.20;;;17.40;8.00;;;;;;5069154;28;20036;-50
2023/04/28 12:21:02;;;;;;;6.32;4.88;;;17.50;7.70;;;;;;5050664;28;20053;-55
2023/04/28 12:23:32;;;;;;;11.90;5.63;;;17.60;7.70;;;;;;5074483;28;20082;-49
2023/04/28 12:25:58;;;;;;;9.68;4.70;;;17.50;7.40;;;;;;5084501;28;20025;-53
2023/04/28 12:28:35;;;;;;;9.93;5.35;;;17.50;8.00;;;;;;5067041;28;20029;-52
2023/04/28 12:31:05;;;;;;;8.95;4.68;;;17.30;7.60;;;;;;5064552;28;20032;-52
2023/04/28 12:33:36;;;;;;;10.57;5.55;;;17.30;7.90;;;;;;5090003;28;20584;-55
2023/04/28 12:36:02;;;;;;;6.97;4.20;;;17.20;7.90;;;;;;5064797;28;20028;-51
2023/04/28 12:38:27;;;;;;;8.18;4.97;;;17.50;8.00;;;;;;5089526;28;20020;-54
2023/04/28 12:40:53;;;;;;;6.70;4.55;;;17.70;7.70;;;;;;5067745;28;20055;-54
2023/04/28 12:43:21;;;;;;;9.10;5.25;;;17.80;7.10;;;;;;5068116;28;20033;-54
2023/04/28 12:45:48;;;;;;;9.82;5.57;;;17.90;6.90;;;;;;5071755;28;20085;-49
2023/04/28 12:48:13;;;;;;;8.75;5.10;;;17.50;7.50;;;;;;5087827;28;20453;-50
2023/04/28 12:50:39;;;;;;;7.10;5.07;;;17.50;7.50;;;;;;5071028;28;20036;-51
2023/04/28 12:53:05;;;;;;;8.38;5.10;;;17.30;7.90;;;;;;5068929;28;20028;-49
2023/04/28 12:55:30;;;;;;;10.00;5.10;;;17.30;7.90;;;;;;5074262;28;20051;-51